Time;durP1;ratioP1;P1;durP2;ratioP2;P2;SDS_P1;SDS_P2;PMS_P1;PMS_P2;Temp;Humidity;BMP_temperature;BMP_pressure;BME280_temperature;BME280_humidity;BME280_pressure;Samples;Min_cycle;Max_cycle;Signal;HPM_P1;HPM_P2
2021/05/23 00:00:00;;;;;;;12.65;4.30;;;;;;;8.12;70.20;100743.31;5004725;28;20052;-80
2021/05/23 00:02:25;;;;;;;11.70;4.78;;;;;;;8.07;70.62;100732.16;5019440;28;20029;-80
2021/05/23 00:04:51;;;;;;;14.65;5.47;;;;;;;8.14;70.60;100741.50;5017578;28;20117;-81
2021/05/23 00:07:21;;;;;;;9.52;3.45;;;;;;;8.23;70.61;100756.03;5016112;28;20478;-81
2021/05/23 00:09:47;;;;;;;9.77;3.35;;;;;;;8.24;70.25;100761.19;5015216;28;20444;-80
2021/05/23 00:12:16;;;;;;;10.75;3.20;;;;;;;8.09;70.00;100722.59;5015873;28;20119;-81
2021/05/23 00:14:42;;;;;;;8.13;2.42;;;;;;;8.28;70.11;100759.34;5017027;28;20100;-81
2021/05/23 00:17:07;;;;;;;10.98;2.83;;;;;;;8.26;69.79;100755.94;5016017;28;20120;-81
2021/05/23 00:19:33;;;;;;;8.35;2.95;;;;;;;8.15;69.68;100712.03;5016396;28;20470;-81
2021/05/23 00:22:00;;;;;;;8.20;2.85;;;;;;;8.42;69.67;100749.41;5015691;28;20061;-81
2021/05/23 00:24:25;;;;;;;6.28;2.30;;;;;;;8.34;69.28;100718.41;5015971;28;20042;-80
2021/05/23 00:26:52;;;;;;;9.30;2.63;;;;;;;8.47;69.10;100718.09;5015886;28;20100;-80
2021/05/23 00:29:18;;;;;;;7.63;2.45;;;;;;;8.63;69.66;100745.38;5011855;28;20075;-80
2021/05/23 00:31:45;;;;;;;6.07;2.15;;;;;;;8.67;68.80;100740.06;5025008;28;20042;-81
2021/05/23 00:34:11;;;;;;;5.38;2.13;;;;;;;8.73;68.87;100740.75;5032129;28;20126;-80
2021/05/23 00:36:36;;;;;;;8.65;2.45;;;;;;;8.77;68.74;100726.72;5025601;28;20061;-80
2021/05/23 00:39:03;;;;;;;11.55;2.50;;;;;;;8.89;68.64;100743.72;5035993;28;20033;-81
2021/05/23 00:41:29;;;;;;;12.18;2.50;;;;;;;8.85;68.50;100738.66;5022361;28;20042;-80
2021/05/23 00:43:55;;;;;;;6.80;2.28;;;;;;;8.75;68.75;100733.75;5016032;28;20320;-80
2021/05/23 00:46:21;;;;;;;11.32;2.47;;;;;;;8.60;69.20;100722.03;5015248;28;20034;-80
2021/05/23 00:48:46;;;;;;;10.18;2.40;;;;;;;8.41;69.70;100700.88;5015709;28;20037;-80
2021/05/23 00:51:12;;;;;;;9.20;2.42;;;;;;;8.40;69.98;100701.78;5014688;28;20501;-80
2021/05/23 00:53:37;;;;;;;7.15;2.50;;;;;;;8.47;70.41;100724.16;5020558;28;20037;-81
2021/05/23 00:56:03;;;;;;;6.70;2.28;;;;;;;8.18;70.55;100678.97;5018535;28;20044;-80
2021/05/23 00:58:28;;;;;;;7.65;2.15;;;;;;;8.45;70.22;100728.50;5014989;28;20040;-81
2021/05/23 01:00:54;;;;;;;10.55;3.17;;;;;;;8.46;70.42;100719.84;5017153;28;20061;-80
2021/05/23 01:03:26;;;;;;;11.18;4.25;;;;;;;8.46;70.44;100719.84;5014702;28;20038;-80
2021/05/23 01:05:52;;;;;;;6.18;2.67;;;;;;;8.06;71.00;100668.94;5015425;28;20089;-81
2021/05/23 01:08:18;;;;;;;7.78;2.65;;;;;;;8.25;71.34;100716.09;5014886;28;20474;-81
2021/05/23 01:11:04;;;;;;;8.40;2.20;;;;;;;8.28;71.65;100725.53;5015377;28;20030;-82
2021/05/23 01:13:59;;;;;;;8.55;2.60;;;;;;;8.27;71.75;100723.84;5041879;28;20088;-80
2021/05/23 01:16:38;;;;;;;6.47;2.55;;;;;;;8.25;71.80;100729.09;5020482;28;20080;-81
2021/05/23 01:19:32;;;;;;;7.15;2.00;;;;;;;8.34;71.91;100728.81;5017363;28;20042;-81
2021/05/23 01:22:09;;;;;;;8.38;1.95;;;;;;;8.42;71.29;100728.63;5002166;28;20041;-81
2021/05/23 01:24:40;;;;;;;11.88;2.58;;;;;;;8.15;71.01;100655.69;5014186;28;20045;-81
2021/05/23 01:27:12;;;;;;;12.40;3.67;;;;;;;8.72;70.70;100720.81;5027386;28;20421;-81
2021/05/23 01:29:39;;;;;;;10.00;2.33;;;;;;;8.77;71.53;100728.50;5034829;28;20037;-81
2021/05/23 01:32:06;;;;;;;10.23;2.97;;;;;;;8.57;72.93;100697.84;5033453;28;20045;-81
2021/05/23 01:34:34;;;;;;;9.50;2.60;;;;;;;8.59;74.57;100729.88;5034927;28;20036;-81
2021/05/23 01:37:06;;;;;;;9.70;2.35;;;;;;;8.44;75.73;100725.97;5034898;28;20037;-81
2021/05/23 01:39:32;;;;;;;9.95;2.78;;;;;;;8.28;77.74;100699.53;5032042;28;20067;-81
2021/05/23 01:41:59;;;;;;;9.27;2.47;;;;;;;8.41;77.83;100721.69;5028751;28;20573;-80
2021/05/23 01:44:25;;;;;;;10.35;2.63;;;;;;;8.05;78.53;100658.59;5034452;28;20034;-80
2021/05/23 01:46:51;;;;;;;4.82;1.70;;;;;;;8.49;71.80;100713.69;5034732;28;20034;-80
2021/05/23 01:49:16;;;;;;;7.68;2.40;;;;;;;8.52;75.48;100707.53;5015678;28;20076;-81
2021/05/23 01:51:42;;;;;;;9.32;2.75;;;;;;;8.52;76.42;100698.00;5014600;28;20108;-80
2021/05/23 01:54:09;;;;;;;9.63;2.35;;;;;;;8.38;76.92;100666.31;5014416;28;20038;-82
2021/05/23 01:56:34;;;;;;;8.13;2.17;;;;;;;8.47;76.41;100681.66;5018119;28;20112;-81
2021/05/23 01:59:00;;;;;;;7.28;2.25;;;;;;;8.49;76.80;100713.69;5014278;28;20449;-80
2021/05/23 02:01:26;;;;;;;6.95;2.45;;;;;;;8.26;77.27;100672.72;5014532;28;20038;-81
2021/05/23 02:03:59;;;;;;;7.95;2.15;;;;;;;8.41;76.41;100687.88;5014589;28;20029;-80
2021/05/23 02:06:25;;;;;;;10.23;2.33;;;;;;;8.37;76.34;100704.44;5013966;28;20148;-81
2021/05/23 02:08:50;;;;;;;10.38;2.60;;;;;;;8.24;76.27;100693.56;5013957;28;20038;-80
2021/05/23 02:11:16;;;;;;;7.70;2.83;;;;;;;8.22;77.18;100700.56;5024951;28;20041;-80
2021/05/23 02:13:41;;;;;;;6.32;2.40;;;;;;;8.01;77.30;100668.22;5024116;28;20037;-81
2021/05/23 02:16:07;;;;;;;5.50;1.65;;;;;;;7.85;76.27;100655.63;5014289;28;20038;-81
2021/05/23 02:18:35;;;;;;;14.60;2.78;;;;;;;7.98;76.64;100682.16;5014268;28;20037;-81
2021/05/23 02:21:00;;;;;;;8.55;2.05;;;;;;;7.98;77.59;100696.88;5014060;28;20105;-80
2021/05/23 02:23:26;;;;;;;7.22;2.10;;;;;;;7.89;77.34;100697.16;5014024;28;20080;-80
2021/05/23 02:25:52;;;;;;;7.05;2.72;;;;;;;7.69;77.42;100670.81;5008237;28;20041;-81
2021/05/23 02:28:19;;;;;;;7.97;2.05;;;;;;;7.58;76.76;100654.66;4994291;28;20030;-81
2021/05/23 02:30:51;;;;;;;11.25;2.80;;;;;;;7.62;77.79;100653.66;4994259;28;20038;-81
2021/05/23 02:33:17;;;;;;;10.30;2.22;;;;;;;7.68;76.61;100660.44;4994225;28;20049;-81
2021/05/23 02:35:46;;;;;;;8.07;2.25;;;;;;;7.48;77.10;100637.59;5005106;28;20060;-81
2021/05/23 02:38:13;;;;;;;10.68;2.67;;;;;;;7.77;76.76;100693.97;5014437;28;20121;-81
2021/05/23 02:40:40;;;;;;;5.95;1.85;;;;;;;7.10;75.74;100595.28;5013868;28;20064;-81
2021/05/23 02:43:06;;;;;;;9.27;2.25;;;;;;;7.71;76.02;100699.34;5013879;28;20129;-82
2021/05/23 02:45:34;;;;;;;7.90;2.50;;;;;;;7.09;76.65;100593.59;5015194;28;20032;-82
2021/05/23 02:48:01;;;;;;;7.55;2.22;;;;;;;7.65;76.18;100676.97;5014319;28;20034;-81
2021/05/23 02:50:28;;;;;;;5.40;2.15;;;;;;;7.71;76.10;100682.91;5014118;28;20042;-81
2021/05/23 02:52:54;;;;;;;7.63;1.83;;;;;;;7.62;75.46;100678.81;5012628;28;20422;-81
2021/05/23 02:55:20;;;;;;;5.90;2.13;;;;;;;7.50;76.00;100660.03;5031448;28;20057;-83
2021/05/23 02:57:46;;;;;;;6.97;2.13;;;;;;;7.66;76.90;100673.47;5030524;28;20493;-81
2021/05/23 03:00:14;;;;;;;8.93;2.22;;;;;;;7.69;77.04;100675.16;5014007;28;20038;-81
2021/05/23 03:02:40;;;;;;;8.93;2.20;;;;;;;7.57;76.66;100672.84;5014001;28;20034;-81
2021/05/23 03:05:10;;;;;;;9.60;2.33;;;;;;;7.56;77.12;100677.22;5012729;28;20057;-81
2021/05/23 03:07:38;;;;;;;6.07;1.90;;;;;;;7.52;76.71;100679.03;5021502;28;20037;-81
2021/05/23 03:10:10;;;;;;;7.00;2.03;;;;;;;7.54;76.29;100678.97;5006129;28;20054;-81
2021/05/23 03:12:38;;;;;;;8.23;2.13;;;;;;;7.53;77.08;100680.75;5023597;28;20033;-83
2021/05/23 03:15:07;;;;;;;6.15;1.90;;;;;;;7.55;77.24;100670.31;5018811;28;20482;-82
2021/05/23 03:17:35;;;;;;;8.10;2.67;;;;;;;7.55;77.78;100659.91;5019771;28;20049;-83
2021/05/23 03:20:00;;;;;;;6.65;2.80;;;;;;;7.58;78.88;100678.03;5014460;28;20041;-81
2021/05/23 03:22:26;;;;;;;8.35;2.63;;;;;;;7.53;78.38;100675.56;5019003;28;20470;-81
2021/05/23 03:24:51;;;;;;;8.32;2.50;;;;;;;7.48;78.77;100667.03;5044814;28;20041;-81
2021/05/23 03:27:17;;;;;;;9.98;2.97;;;;;;;7.49;78.56;100673.06;5035671;28;20042;-81
2021/05/23 03:29:42;;;;;;;8.73;2.55;;;;;;;7.41;79.19;100657.69;5025211;28;20501;-81
2021/05/23 03:32:08;;;;;;;6.30;2.22;;;;;;;7.45;78.78;100668.84;5014002;28;20038;-81
2021/05/23 03:34:33;;;;;;;7.50;2.20;;;;;;;7.40;78.61;100668.97;5013670;28;20037;-81
2021/05/23 03:36:59;;;;;;;5.78;2.17;;;;;;;7.34;79.26;100656.97;5013132;28;20030;-81
2021/05/23 03:39:25;;;;;;;10.23;3.85;;;;;;;7.32;78.37;100644.94;5013669;28;20076;-81
2021/05/23 03:41:50;;;;;;;8.13;2.25;;;;;;;7.37;78.10;100659.50;5017324;28;20397;-82
2021/05/23 03:44:16;;;;;;;8.60;2.03;;;;;;;7.35;77.59;100666.47;5015511;28;20033;-82
2021/05/23 03:46:41;;;;;;;8.95;2.25;;;;;;;6.52;77.04;100536.19;5017044;28;20481;-82
2021/05/23 03:49:08;;;;;;;6.22;2.20;;;;;;;7.28;75.77;100670.13;5016583;28;20034;-81
2021/05/23 03:51:33;;;;;;;6.45;1.88;;;;;;;7.21;76.96;100653.84;5016987;28;20449;-81
2021/05/23 03:53:59;;;;;;;5.80;1.75;;;;;;;7.25;76.57;100649.44;5017161;28;20034;-81
2021/05/23 03:56:24;;;;;;;8.15;2.08;;;;;;;7.10;75.49;100635.06;5015364;28;20509;-81
2021/05/23 03:58:50;;;;;;;7.13;1.55;;;;;;;7.15;75.19;100637.56;5016477;28;20397;-81
2021/05/23 04:01:15;;;;;;;10.18;2.33;;;;;;;7.14;75.25;100664.41;5016424;28;20038;-81
2021/05/23 04:03:42;;;;;;;8.27;2.35;;;;;;;7.11;75.77;100665.34;5016803;28;20041;-81
2021/05/23 04:06:08;;;;;;;9.70;2.33;;;;;;;7.11;76.28;100661.91;5015079;28;20029;-81
2021/05/23 04:08:33;;;;;;;4.97;1.67;;;;;;;7.12;76.00;100667.03;5016349;28;20145;-81
2021/05/23 04:11:06;;;;;;;8.02;1.80;;;;;;;7.18;74.95;100666.06;5015313;28;20466;-81
2021/05/23 04:13:34;;;;;;;7.40;2.10;;;;;;;7.19;75.04;100668.59;5019096;28;20057;-81
2021/05/23 04:15:59;;;;;;;8.70;2.30;;;;;;;6.94;76.01;100634.59;5016396;28;20136;-81
2021/05/23 04:18:25;;;;;;;7.10;2.30;;;;;;;6.94;74.84;100639.78;5016333;28;20450;-81
2021/05/23 04:20:51;;;;;;;8.95;2.03;;;;;;;7.10;75.82;100676.59;5016315;28;20053;-81
2021/05/23 04:23:16;;;;;;;4.78;1.80;;;;;;;7.02;76.10;100671.59;5017663;28;20030;-81
2021/05/23 04:25:42;;;;;;;6.68;1.60;;;;;;;6.95;75.47;100667.44;5012993;28;20045;-81
2021/05/23 04:28:07;;;;;;;6.88;1.83;;;;;;;6.66;75.73;100626.63;4997438;28;20113;-81
2021/05/23 04:30:33;;;;;;;6.72;1.90;;;;;;;6.73;75.39;100644.59;4996574;28;20034;-81
2021/05/23 04:32:59;;;;;;;5.90;2.20;;;;;;;6.76;75.11;100635.03;4995475;28;20054;-81
2021/05/23 04:35:25;;;;;;;4.85;1.70;;;;;;;7.04;75.27;100681.94;4996359;28;20046;-81
2021/05/23 04:37:51;;;;;;;8.40;1.90;;;;;;;7.09;75.23;100676.66;5017535;28;20045;-81
2021/05/23 04:40:17;;;;;;;6.85;1.90;;;;;;;7.00;74.45;100652.63;5035912;28;20037;-81
2021/05/23 04:42:43;;;;;;;9.32;1.88;;;;;;;7.05;74.45;100665.47;5035671;28;20092;-81
2021/05/23 04:45:10;;;;;;;6.25;1.70;;;;;;;7.22;74.10;100675.47;5023994;28;20117;-81
2021/05/23 04:47:37;;;;;;;4.95;2.05;;;;;;;7.20;74.15;100666.84;5016309;28;20040;-82
2021/05/23 04:50:07;;;;;;;7.13;1.85;;;;;;;7.49;73.34;100668.72;5015889;28;20084;-81
2021/05/23 04:52:32;;;;;;;6.88;1.88;;;;;;;7.76;72.71;100662.84;5018238;28;20044;-82
2021/05/23 04:54:58;;;;;;;5.65;1.98;;;;;;;7.98;71.96;100665.69;5035924;28;20029;-81
2021/05/23 04:57:24;;;;;;;4.53;2.03;;;;;;;7.95;71.39;100617.25;5035058;28;20046;-82
2021/05/23 04:59:51;;;;;;;4.53;1.80;;;;;;;7.87;70.90;100579.38;5036408;28;20041;-81
2021/05/23 05:02:17;;;;;;;9.57;2.17;;;;;;;8.27;70.99;100646.66;5035818;28;20401;-82
2021/05/23 05:04:43;;;;;;;6.15;2.22;;;;;;;8.23;71.62;100631.22;5018280;28;20038;-82
2021/05/23 05:07:08;;;;;;;5.38;1.95;;;;;;;8.30;71.90;100633.56;5016017;28;20030;-81
2021/05/23 05:09:34;;;;;;;6.68;2.22;;;;;;;8.33;71.48;100636.06;5016300;28;20034;-81
2021/05/23 05:12:00;;;;;;;6.47;1.77;;;;;;;8.17;71.37;100620.06;5014784;28;20429;-81
2021/05/23 05:14:26;;;;;;;7.03;2.40;;;;;;;7.99;70.57;100599.81;5015483;28;20040;-81
2021/05/23 05:16:51;;;;;;;6.20;1.98;;;;;;;8.15;70.81;100634.00;5030675;28;20030;-81
2021/05/23 05:19:17;;;;;;;6.35;2.00;;;;;;;8.15;71.53;100628.81;5028545;28;20121;-81
2021/05/23 05:21:43;;;;;;;5.43;1.77;;;;;;;8.04;70.65;100621.31;5016062;28;20037;-81
2021/05/23 05:24:09;;;;;;;8.35;2.28;;;;;;;8.12;70.73;100621.97;5016415;28;20181;-81
2021/05/23 05:26:35;;;;;;;5.40;1.83;;;;;;;7.94;71.12;100575.72;5016096;28;20025;-81
2021/05/23 05:29:01;;;;;;;5.78;1.80;;;;;;;8.10;70.71;100600.34;5017860;28;20371;-81
2021/05/23 05:31:26;;;;;;;9.23;2.13;;;;;;;8.19;70.63;100617.44;5016889;28;20049;-80
2021/05/23 05:33:52;;;;;;;6.68;2.10;;;;;;;8.19;70.29;100604.44;5016857;28;20375;-81
2021/05/23 05:36:17;;;;;;;6.07;1.65;;;;;;;8.47;69.90;100624.44;5036212;28;20038;-81
2021/05/23 05:38:43;;;;;;;6.70;2.10;;;;;;;8.51;70.76;100627.78;5033263;28;20057;-81
2021/05/23 05:41:08;;;;;;;7.10;2.72;;;;;;;8.34;70.44;100592.72;5021024;28;20050;-81
2021/05/23 05:43:35;;;;;;;7.97;2.15;;;;;;;8.51;69.90;100615.66;5015580;28;20479;-81
2021/05/23 05:46:01;;;;;;;7.38;1.88;;;;;;;8.68;69.21;100609.06;5015421;28;20028;-81
2021/05/23 05:48:26;;;;;;;7.95;1.73;;;;;;;8.63;68.82;100614.44;5015952;28;20116;-80
2021/05/23 05:50:52;;;;;;;7.90;2.08;;;;;;;8.68;69.10;100611.66;5022080;28;20137;-80
2021/05/23 05:53:18;;;;;;;8.20;2.05;;;;;;;8.49;68.63;100581.88;5035208;28;20033;-81
2021/05/23 05:55:43;;;;;;;5.63;1.90;;;;;;;8.20;69.08;100550.69;5037080;28;20040;-81
2021/05/23 05:58:09;;;;;;;5.38;1.98;;;;;;;8.43;69.18;100610.63;5049463;28;20026;-81
2021/05/23 06:00:34;;;;;;;8.25;1.88;;;;;;;8.51;69.57;100606.97;5035145;28;20029;-81
2021/05/23 06:03:01;;;;;;;6.50;2.10;;;;;;;8.67;69.64;100607.34;5034794;28;20052;-81
2021/05/23 06:05:27;;;;;;;6.22;1.83;;;;;;;8.40;68.68;100563.06;5037877;28;20061;-81
2021/05/23 06:07:52;;;;;;;5.07;1.90;;;;;;;8.41;68.57;100568.22;5027761;28;20030;-80
2021/05/23 06:10:18;;;;;;;7.22;2.00;;;;;;;8.67;68.67;100610.81;5027682;28;20026;-80
2021/05/23 06:12:43;;;;;;;4.60;1.90;;;;;;;8.44;68.64;100575.91;5028195;28;20046;-81
2021/05/23 06:15:10;;;;;;;6.47;1.90;;;;;;;8.70;68.51;100615.91;5033014;28;20025;-81
2021/05/23 06:17:36;;;;;;;6.55;1.70;;;;;;;8.73;69.43;100615.00;5044824;28;20037;-80
2021/05/23 06:20:02;;;;;;;3.83;1.70;;;;;;;8.49;70.06;100574.09;5044936;28;20044;-80
2021/05/23 06:22:28;;;;;;;7.53;2.45;;;;;;;8.51;69.21;100541.94;5030908;28;20060;-80
2021/05/23 06:24:54;;;;;;;4.75;1.77;;;;;;;9.06;68.60;100615.63;5023181;28;20038;-80
2021/05/23 06:27:19;;;;;;;5.53;1.90;;;;;;;9.12;69.08;100598.97;5006834;28;20054;-81
2021/05/23 06:29:45;;;;;;;3.88;1.83;;;;;;;9.32;68.34;100600.88;5021896;28;20029;-80
2021/05/23 06:32:12;;;;;;;9.30;1.52;;;;;;;9.33;68.79;100597.38;5024975;28;20034;-79
2021/05/23 06:34:37;;;;;;;5.03;1.83;;;;;;;9.30;68.79;100589.63;5019007;28;20398;-79
2021/05/23 06:37:03;;;;;;;8.35;2.75;;;;;;;9.09;68.52;100558.25;5020911;28;20037;-80
2021/05/23 06:39:29;;;;;;;8.05;1.85;;;;;;;9.05;69.41;100569.66;5018496;28;20417;-79
2021/05/23 06:41:55;;;;;;;8.02;2.15;;;;;;;9.09;69.59;100557.38;5012326;28;20054;-81
2021/05/23 06:44:20;;;;;;;4.65;1.80;;;;;;;9.21;69.84;100572.59;5016122;28;20026;-79
2021/05/23 06:46:46;;;;;;;5.88;1.77;;;;;;;9.23;69.58;100555.16;5016912;28;20482;-80
2021/05/23 06:49:12;;;;;;;9.10;1.90;;;;;;;9.29;69.89;100554.94;5018722;28;20037;-79
2021/05/23 06:51:37;;;;;;;6.80;1.85;;;;;;;9.63;69.28;100571.13;5021674;28;20025;-80
2021/05/23 06:54:03;;;;;;;6.75;1.80;;;;;;;9.70;68.52;100574.34;5016764;28;20053;-80
2021/05/23 06:56:29;;;;;;;5.72;1.88;;;;;;;9.82;68.31;100570.47;5018784;28;20080;-80
2021/05/23 06:58:54;;;;;;;5.10;1.70;;;;;;;9.89;68.01;100566.72;5022172;28;20038;-79
2021/05/23 07:01:20;;;;;;;4.47;1.77;;;;;;;9.61;68.27;100542.50;5036336;28;20120;-79
2021/05/23 07:03:45;;;;;;;8.88;2.53;;;;;;;9.68;68.98;100582.25;5022915;28;20073;-79
2021/05/23 07:06:12;;;;;;;3.83;1.83;;;;;;;9.74;68.82;100581.16;5013743;28;20035;-79
2021/05/23 07:08:43;;;;;;;4.10;1.40;;;;;;;9.93;68.69;100573.50;5017607;28;20426;-80
2021/05/23 07:11:09;;;;;;;6.25;1.55;;;;;;;9.97;67.77;100582.91;4997371;28;20039;-81
2021/05/23 07:13:34;;;;;;;4.82;1.50;;;;;;;9.89;68.15;100562.34;5012235;28;20038;-80
2021/05/23 07:16:00;;;;;;;8.13;1.92;;;;;;;9.73;67.70;100529.94;5006791;28;20470;-81
2021/05/23 07:18:25;;;;;;;5.82;1.70;;;;;;;10.00;67.95;100574.16;5023322;28;20339;-81
2021/05/23 07:20:51;;;;;;;4.75;1.55;;;;;;;9.92;67.84;100571.81;5018587;28;20500;-80
2021/05/23 07:23:18;;;;;;;4.93;1.70;;;;;;;10.00;67.17;100558.50;5019257;28;20033;-80
2021/05/23 07:25:44;;;;;;;6.63;1.60;;;;;;;10.38;66.87;100570.06;5032852;28;20120;-80
2021/05/23 07:28:10;;;;;;;8.30;2.00;;;;;;;10.42;66.39;100562.97;5033615;28;20057;-81
2021/05/23 07:30:36;;;;;;;6.90;1.27;;;;;;;10.74;65.78;100537.31;5035821;28;20068;-80
2021/05/23 07:33:02;;;;;;;7.85;1.60;;;;;;;11.17;64.48;100558.19;5017913;28;20065;-80
2021/05/23 07:35:28;;;;;;;5.68;1.65;;;;;;;11.37;63.18;100567.75;5017640;28;20037;-80
2021/05/23 07:37:53;;;;;;;6.05;1.10;;;;;;;11.20;63.41;100531.91;5018016;28;20080;-81
2021/05/23 07:40:19;;;;;;;6.03;1.38;;;;;;;11.62;62.87;100540.53;5017024;28;20548;-81
2021/05/23 07:42:45;;;;;;;5.70;1.33;;;;;;;11.75;62.17;100528.59;5032852;28;20045;-80
2021/05/23 07:45:12;;;;;;;5.65;1.60;;;;;;;11.52;62.46;100551.41;5033894;28;20084;-81
2021/05/23 07:47:38;;;;;;;6.55;1.25;;;;;;;11.58;62.81;100541.59;5034371;28;20033;-81
2021/05/23 07:50:05;;;;;;;3.75;1.55;;;;;;;11.68;62.36;100548.09;5029365;28;20037;-81
2021/05/23 07:52:31;;;;;;;4.38;1.23;;;;;;;11.76;63.32;100542.53;5038782;28;20049;-80
2021/05/23 07:54:56;;;;;;;4.30;1.20;;;;;;;11.82;61.25;100535.25;5057334;28;20026;-81
2021/05/23 07:57:22;;;;;;;5.47;0.98;;;;;;;11.62;59.53;100506.53;5050629;28;20029;-81
2021/05/23 07:59:48;;;;;;;5.22;1.13;;;;;;;11.51;60.78;100518.34;5043576;28;20034;-80
2021/05/23 08:02:13;;;;;;;3.95;1.15;;;;;;;11.46;60.65;100495.94;5025568;28;20415;-82
2021/05/23 08:04:39;;;;;;;4.65;1.10;;;;;;;11.45;60.31;100533.44;5007240;28;20042;-81
2021/05/23 08:07:05;;;;;;;5.50;1.38;;;;;;;11.74;60.55;100542.59;5003425;28;20085;-81
2021/05/23 08:09:31;;;;;;;6.85;1.35;;;;;;;12.00;58.58;100533.56;5009814;28;20030;-81
2021/05/23 08:11:56;;;;;;;5.85;1.27;;;;;;;12.14;58.62;100525.06;5017251;28;20041;-81
2021/05/23 08:14:22;;;;;;;3.53;1.10;;;;;;;11.74;58.52;100492.06;5030171;28;20041;-80
2021/05/23 08:16:48;;;;;;;6.82;1.27;;;;;;;12.04;58.57;100515.13;5023622;28;20033;-81
2021/05/23 08:19:14;;;;;;;4.72;1.20;;;;;;;12.10;58.08;100520.91;5016856;28;20076;-81
2021/05/23 08:21:41;;;;;;;7.13;1.38;;;;;;;12.24;57.67;100494.09;5015940;28;20042;-81
2021/05/23 08:24:07;;;;;;;4.80;1.08;;;;;;;12.53;54.92;100538.09;5014322;28;20442;-81
2021/05/23 08:26:33;;;;;;;4.28;1.20;;;;;;;12.27;55.39;100464.31;5006448;28;20034;-80
2021/05/23 08:29:00;;;;;;;4.55;1.50;;;;;;;12.70;55.62;100477.03;5033672;28;20083;-81
2021/05/23 08:31:26;;;;;;;5.25;1.40;;;;;;;12.77;55.84;100525.56;5016420;28;20489;-80
2021/05/23 08:33:52;;;;;;;3.78;1.23;;;;;;;12.86;55.56;100525.06;5026658;28;20059;-80
2021/05/23 08:36:17;;;;;;;5.60;1.20;;;;;;;12.55;55.46;100466.41;5018372;28;20029;-81
2021/05/23 08:38:43;;;;;;;5.72;1.30;;;;;;;12.94;54.44;100522.91;5015088;28;20042;-80
2021/05/23 08:41:09;;;;;;;9.15;1.17;;;;;;;12.92;55.15;100524.75;5013886;28;20140;-85
2021/05/23 08:43:36;;;;;;;4.93;1.20;;;;;;;13.44;53.89;100495.03;5013356;28;20041;-85
2021/05/23 08:46:02;;;;;;;3.75;1.05;;;;;;;13.35;53.61;100516.44;5016761;28;20068;-84
2021/05/23 08:48:27;;;;;;;5.07;1.23;;;;;;;12.98;54.15;100445.84;5015574;28;20026;-85
2021/05/23 08:50:54;;;;;;;4.63;1.10;;;;;;;13.27;53.69;100522.09;5016608;28;20461;-85
2021/05/23 08:53:22;;;;;;;4.13;0.88;;;;;;;13.02;54.52;100505.97;5012658;28;20439;-84
2021/05/23 08:55:49;;;;;;;3.53;0.85;;;;;;;12.72;55.14;100447.22;5006567;28;20485;-85
2021/05/23 08:58:17;;;;;;;4.45;1.33;;;;;;;13.07;54.60;100512.69;5016069;28;20383;-85
2021/05/23 09:00:43;;;;;;;3.83;0.98;;;;;;;12.35;54.97;100437.75;5012302;28;20375;-84
2021/05/23 09:03:12;;;;;;;9.43;1.52;;;;;;;12.72;55.38;100465.53;5014647;28;20030;-85
2021/05/23 09:05:57;;;;;;;4.78;1.35;;;;;;;13.13;54.82;100519.34;5010572;28;20114;-85
2021/05/23 09:08:28;;;;;;;8.20;1.38;;;;;;;13.21;54.70;100504.09;5031403;28;20042;-83
2021/05/23 09:11:04;;;;;;;7.22;1.35;;;;;;;12.95;53.85;100482.69;5006097;28;20487;-83
2021/05/23 09:13:35;;;;;;;6.40;1.40;;;;;;;13.16;54.40;100508.72;5014075;28;20026;-84
2021/05/23 09:16:07;;;;;;;2.92;1.15;;;;;;;13.25;54.35;100500.38;5014893;28;20042;-84
2021/05/23 09:18:47;;;;;;;5.38;1.20;;;;;;;13.70;54.91;100490.16;5015230;28;20034;-83
2021/05/23 09:21:16;;;;;;;4.60;1.27;;;;;;;13.87;53.68;100493.63;5014126;28;20030;-82
2021/05/23 09:23:47;;;;;;;7.35;1.50;;;;;;;13.09;53.42;100392.88;5018731;28;20026;-82
2021/05/23 09:26:20;;;;;;;5.65;1.60;;;;;;;13.59;53.64;100469.75;5017511;28;20028;-83
2021/05/23 09:28:48;;;;;;;6.40;1.10;;;;;;;13.67;52.92;100490.34;5016263;28;20124;-82
2021/05/23 09:31:20;;;;;;;5.95;1.45;;;;;;;13.74;53.00;100494.31;5029806;28;20136;-82
2021/05/23 09:33:50;;;;;;;5.00;1.42;;;;;;;13.66;53.37;100493.88;5034001;28;20505;-83
2021/05/23 09:36:18;;;;;;;5.13;1.27;;;;;;;13.62;53.28;100479.22;5015782;28;20080;-84
2021/05/23 09:38:56;;;;;;;5.30;1.08;;;;;;;13.54;53.23;100495.38;5037134;28;20042;-81
2021/05/23 09:41:25;;;;;;;6.25;1.15;;;;;;;13.62;54.08;100487.09;5018615;28;20124;-82
2021/05/23 09:44:14;;;;;;;7.03;1.58;;;;;;;13.53;54.18;100492.84;5018376;28;20425;-82
2021/05/23 09:46:53;;;;;;;5.75;1.30;;;;;;;13.71;54.29;100483.97;5020128;28;20034;-82
2021/05/23 09:49:21;;;;;;;5.45;2.42;;;;;;;14.11;53.44;100461.69;5027221;28;20032;-83
2021/05/23 09:52:17;;;;;;;9.38;4.30;;;;;;;14.47;51.07;100478.91;5037356;28;20038;-83
2021/05/23 09:54:48;;;;;;;5.90;1.80;;;;;;;13.79;52.09;100411.88;4999684;28;20057;-85
2021/05/23 09:57:24;;;;;;;6.30;1.35;;;;;;;14.36;52.63;100479.53;5013893;28;20450;-83
2021/05/23 10:00:07;;;;;;;4.65;1.45;;;;;;;13.73;53.21;100481.25;5014666;28;20423;-83
2021/05/23 10:02:48;;;;;;;5.70;1.80;;;;;;;13.05;54.95;100425.44;5022949;28;20034;-83
2021/05/23 10:05:14;;;;;;;6.88;1.50;;;;;;;13.69;54.51;100491.06;5018315;28;20034;-82
2021/05/23 10:07:39;;;;;;;7.32;2.05;;;;;;;13.76;54.76;100458.34;5020880;28;20052;-82
2021/05/23 10:10:05;;;;;;;8.90;2.13;;;;;;;13.32;56.94;100455.47;5023822;28;20485;-83
2021/05/23 10:12:32;;;;;;;6.10;1.50;;;;;;;13.27;57.54;100495.06;5015526;28;20041;-81
2021/05/23 10:14:57;;;;;;;5.38;1.35;;;;;;;12.68;57.90;100440.41;5023593;28;20038;-81
2021/05/23 10:17:23;;;;;;;8.90;1.45;;;;;;;12.36;60.04;100448.13;5025148;28;20038;-81
2021/05/23 10:19:50;;;;;;;7.13;1.73;;;;;;;12.56;60.29;100494.28;5023173;28;20078;-82
2021/05/23 10:22:16;;;;;;;10.63;2.15;;;;;;;12.60;62.64;100503.66;5016032;28;20034;-81
2021/05/23 10:24:48;;;;;;;6.13;1.30;;;;;;;12.47;61.65;100469.41;5017469;28;20448;-81
2021/05/23 10:27:19;;;;;;;5.53;1.90;;;;;;;12.47;62.91;100487.72;5007627;28;20034;-82
2021/05/23 10:29:49;;;;;;;6.03;1.88;;;;;;;12.09;63.14;100474.72;5015216;28;20395;-82
2021/05/23 10:32:37;;;;;;;5.88;1.85;;;;;;;12.22;63.27;100471.50;5029050;28;20491;-84
2021/05/23 10:35:33;;;;;;;6.88;2.00;;;;;;;12.53;62.90;100465.63;5003240;28;20113;-82
2021/05/23 10:38:10;;;;;;;7.30;1.70;;;;;;;12.66;63.15;100452.75;5024010;28;20128;-83
2021/05/23 10:40:48;;;;;;;5.75;2.38;;;;;;;12.67;62.74;100457.09;5027458;28;20053;-81
2021/05/23 10:43:24;;;;;;;8.30;1.75;;;;;;;12.98;61.22;100440.59;5016177;28;20037;-81
2021/05/23 10:46:08;;;;;;;13.20;1.92;;;;;;;13.06;59.69;100445.47;5013674;28;20066;-80
2021/05/23 10:48:35;;;;;;;9.82;1.45;;;;;;;13.18;60.04;100433.47;5014145;28;20392;-81
2021/05/23 10:51:16;;;;;;;6.28;1.98;;;;;;;13.39;60.27;100433.28;5014863;28;20042;-81
2021/05/23 10:53:43;;;;;;;8.38;1.75;;;;;;;13.46;58.04;100432.00;5017101;28;20049;-80
2021/05/23 10:56:30;;;;;;;4.93;1.48;;;;;;;13.81;57.07;100429.22;5015067;28;20044;-81
2021/05/23 10:59:02;;;;;;;5.63;1.35;;;;;;;14.04;56.10;100422.66;4995018;28;20038;-81
2021/05/23 11:01:42;;;;;;;5.78;1.50;;;;;;;14.02;55.10;100376.47;4994820;28;20035;-83
2021/05/23 11:04:19;;;;;;;8.70;2.03;;;;;;;14.00;55.15;100417.69;4992992;28;20490;-81
2021/05/23 11:06:46;;;;;;;5.65;1.17;;;;;;;13.85;57.25;100425.47;5011641;28;20490;-82
2021/05/23 11:09:14;;;;;;;7.18;1.30;;;;;;;13.29;60.55;100438.13;5024563;28;20080;-83
2021/05/23 11:11:40;;;;;;;4.13;1.40;;;;;;;12.15;65.18;100348.84;5013618;28;20053;-81
2021/05/23 11:14:15;;;;;;;7.88;2.08;;;;;;;12.25;65.64;100422.50;5030608;28;20029;-81
2021/05/23 11:16:56;;;;;;;4.90;1.73;;;;;;;11.98;67.97;100406.38;5016702;28;20105;-81
2021/05/23 11:19:24;;;;;;;6.80;2.03;;;;;;;12.20;68.24;100418.44;5013721;28;20030;-83
2021/05/23 11:21:52;;;;;;;7.85;1.58;;;;;;;12.36;67.19;100408.88;5014590;28;20060;-82
2021/05/23 11:24:24;;;;;;;7.35;1.77;;;;;;;11.64;68.27;100322.53;5014351;28;20034;-82
2021/05/23 11:26:50;;;;;;;7.78;2.20;;;;;;;12.12;68.16;100363.84;5018495;28;20092;-87
2021/05/23 11:29:16;;;;;;;9.68;2.42;;;;;;;12.39;68.27;100400.00;5012192;28;20034;-82
2021/05/23 11:31:49;;;;;;;9.60;2.13;;;;;;;12.30;69.31;100398.72;5014082;28;20034;-82